Back to Top

Language: 

My Weather Underground Personal Weather Station Historical Data with Graphs...

Delerius Weather Station Historical Data
Daily Summary for December 3, 2017 Units:  Both    English   Metric
« Previous Day
Next Day »
Daily Weekly Monthly Yearly Custom
  High: Low: Average:
Temperature: 51.8 °F /  11 °C 38.5 °F /  3.6 °C 45.3 °F /  7.4 °C
Dew Point: 45.9 °F /  7.7 °C 36.4 °F /  2.4 °C 41.9 °F /  5.5 °C
Humidity: 94 % 71 % 88 %
Wind Speed: 11.0 mph /  17.7 km/h - 4.5 mph /  7.2 km/h
Wind Gust: 16.0 mph /  25.7 km/h - -
Wind:- - WNW
Pressure: 30.41 in /  1029.7 hPa 30.23 in /  1023.6 hPa -
Precipitation: 0.00 in /  0 mm    
Historical Graphs
 
 
Tabular Data for December 3, 2017
Time Temperature Dew Point Pressure Wind Wind Speed Wind Gust Humidity Rainfall Rate (Hourly) solar Conditions
00:05 45.9 °F /  7.7 °C 43.1 °F /  6.2 °C 30.25 in /  1024.3 hPa WNW 8.0 mph /  12.9 km/h 11.0 mph /  17.7 km/h 90 % 0.00 in /  0 mm 0 W/m2
00:15 45.9 °F /  7.7 °C 43.1 °F /  6.2 °C 30.25 in /  1024.3 hPa WNW 9.0 mph /  14.5 km/h 14.0 mph /  22.5 km/h 90 % 0.00 in /  0 mm 0 W/m2
00:20 45.9 °F /  7.7 °C 43.1 °F /  6.2 °C 30.25 in /  1024.3 hPa WNW 7.0 mph /  11.3 km/h 10.0 mph /  16.1 km/h 90 % 0.00 in /  0 mm 0 W/m2
00:25 46.0 °F /  7.8 °C 43.3 °F /  6.3 °C 30.25 in /  1024.3 hPa WNW 8.0 mph /  12.9 km/h 14.0 mph /  22.5 km/h 90 % 0.00 in /  0 mm 0 W/m2
00:30 46.0 °F /  7.8 °C 43.3 °F /  6.3 °C 30.24 in /  1023.9 hPa WNW 9.0 mph /  14.5 km/h 12.0 mph /  19.3 km/h 90 % 0.00 in /  0 mm 0 W/m2
00:40 46.0 °F /  7.8 °C 43.3 °F /  6.3 °C 30.24 in /  1023.9 hPa WNW 9.0 mph /  14.5 km/h 12.0 mph /  19.3 km/h 90 % 0.00 in /  0 mm 0 W/m2
00:45 46.0 °F /  7.8 °C 43.3 °F /  6.3 °C 30.24 in /  1023.9 hPa WNW 9.0 mph /  14.5 km/h 13.0 mph /  20.9 km/h 90 % 0.00 in /  0 mm 0 W/m2
00:50 46.0 °F /  7.8 °C 43.3 °F /  6.3 °C 30.24 in /  1023.9 hPa WNW 9.0 mph /  14.5 km/h 14.0 mph /  22.5 km/h 90 % 0.00 in /  0 mm 0 W/m2
00:55 46.0 °F /  7.8 °C 43.3 °F /  6.3 °C 30.24 in /  1023.9 hPa WNW 8.0 mph /  12.9 km/h 12.0 mph /  19.3 km/h 90 % 0.00 in /  0 mm 0 W/m2
01:00 46.0 °F /  7.8 °C 43.3 °F /  6.3 °C 30.24 in /  1023.9 hPa WNW 8.0 mph /  12.9 km/h 11.0 mph /  17.7 km/h 90 % 0.00 in /  0 mm 0 W/m2
01:10 46.0 °F /  7.8 °C 43.0 °F /  6.1 °C 30.24 in /  1023.9 hPa WNW 9.0 mph /  14.5 km/h 14.0 mph /  22.5 km/h 89 % 0.00 in /  0 mm 0 W/m2
01:20 46.0 °F /  7.8 °C 43.0 °F /  6.1 °C 30.23 in /  1023.6 hPa WNW 7.0 mph /  11.3 km/h 11.0 mph /  17.7 km/h 89 % 0.00 in /  0 mm 0 W/m2
01:30 46.0 °F /  7.8 °C 43.3 °F /  6.3 °C 30.23 in /  1023.6 hPa WNW 8.0 mph /  12.9 km/h 12.0 mph /  19.3 km/h 90 % 0.00 in /  0 mm 0 W/m2
01:35 46.2 °F /  7.9 °C 43.2 °F /  6.2 °C 30.23 in /  1023.6 hPa WNW 8.0 mph /  12.9 km/h 11.0 mph /  17.7 km/h 89 % 0.00 in /  0 mm 0 W/m2
01:40 46.2 °F /  7.9 °C 43.2 °F /  6.2 °C 30.24 in /  1023.9 hPa WNW 7.0 mph /  11.3 km/h 10.0 mph /  16.1 km/h 89 % 0.00 in /  0 mm 0 W/m2
01:50 46.4 °F /  8 °C 43.3 °F /  6.3 °C 30.23 in /  1023.6 hPa WNW 9.0 mph /  14.5 km/h 13.0 mph /  20.9 km/h 89 % 0.00 in /  0 mm 0 W/m2
02:05 46.6 °F /  8.1 °C 43.5 °F /  6.4 °C 30.23 in /  1023.6 hPa WNW 9.0 mph /  14.5 km/h 12.0 mph /  19.3 km/h 89 % 0.00 in /  0 mm 0 W/m2
02:10 46.6 °F /  8.1 °C 43.5 °F /  6.4 °C 30.23 in /  1023.6 hPa WNW 8.0 mph /  12.9 km/h 11.0 mph /  17.7 km/h 89 % 0.00 in /  0 mm 0 W/m2
02:15 46.8 °F /  8.2 °C 43.7 °F /  6.5 °C 30.23 in /  1023.6 hPa WNW 9.0 mph /  14.5 km/h 13.0 mph /  20.9 km/h 89 % 0.00 in /  0 mm 0 W/m2
02:20 46.8 °F /  8.2 °C 43.7 °F /  6.5 °C 30.23 in /  1023.6 hPa WNW 9.0 mph /  14.5 km/h 13.0 mph /  20.9 km/h 89 % 0.00 in /  0 mm 0 W/m2
02:25 46.8 °F /  8.2 °C 44.0 °F /  6.7 °C 30.23 in /  1023.6 hPa WNW 9.0 mph /  14.5 km/h 15.0 mph /  24.1 km/h 90 % 0.00 in /  0 mm 0 W/m2
02:36 46.9 °F /  8.3 °C 44.2 °F /  6.8 °C 30.23 in /  1023.6 hPa WNW 10.0 mph /  16.1 km/h 16.0 mph /  25.7 km/h 90 % 0.00 in /  0 mm 0 W/m2
02:41 46.9 °F /  8.3 °C 44.2 °F /  6.8 °C 30.23 in /  1023.6 hPa WNW 9.0 mph /  14.5 km/h 13.0 mph /  20.9 km/h 90 % 0.00 in /  0 mm 0 W/m2
02:46 46.9 °F /  8.3 °C 44.2 °F /  6.8 °C 30.23 in /  1023.6 hPa WNW 10.0 mph /  16.1 km/h 15.0 mph /  24.1 km/h 90 % 0.00 in /  0 mm 0 W/m2
02:51 46.9 °F /  8.3 °C 44.2 °F /  6.8 °C 30.23 in /  1023.6 hPa WNW 10.0 mph /  16.1 km/h 15.0 mph /  24.1 km/h 90 % 0.00 in /  0 mm 0 W/m2
02:56 46.9 °F /  8.3 °C 44.2 °F /  6.8 °C 30.23 in /  1023.6 hPa WNW 10.0 mph /  16.1 km/h 16.0 mph /  25.7 km/h 90 % 0.00 in /  0 mm 0 W/m2
03:00 46.9 °F /  8.3 °C 44.2 °F /  6.8 °C 30.24 in /  1023.9 hPa WNW 11.0 mph /  17.7 km/h 15.0 mph /  24.1 km/h 90 % 0.00 in /  0 mm 0 W/m2
03:05 46.9 °F /  8.3 °C 44.2 °F /  6.8 °C 30.24 in /  1023.9 hPa WNW 7.0 mph /  11.3 km/h 11.0 mph /  17.7 km/h 90 % 0.00 in /  0 mm 0 W/m2
03:10 46.8 °F /  8.2 °C 44.0 °F /  6.7 °C 30.24 in /  1023.9 hPa WNW 9.0 mph /  14.5 km/h 12.0 mph /  19.3 km/h 90 % 0.00 in /  0 mm 0 W/m2
03:15 46.8 °F /  8.2 °C 44.3 °F /  6.8 °C 30.23 in /  1023.6 hPa WNW 9.0 mph /  14.5 km/h 14.0 mph /  22.5 km/h 91 % 0.00 in /  0 mm 0 W/m2
03:20 46.8 °F /  8.2 °C 44.3 °F /  6.8 °C 30.24 in /  1023.9 hPa WNW 9.0 mph /  14.5 km/h 13.0 mph /  20.9 km/h 91 % 0.00 in /  0 mm 0 W/m2
03:25 46.8 °F /  8.2 °C 44.3 °F /  6.8 °C 30.23 in /  1023.6 hPa WNW 8.0 mph /  12.9 km/h 10.0 mph /  16.1 km/h 91 % 0.00 in /  0 mm 0 W/m2
03:30 46.8 °F /  8.2 °C 44.3 °F /  6.8 °C 30.24 in /  1023.9 hPa WNW 9.0 mph /  14.5 km/h 15.0 mph /  24.1 km/h 91 % 0.00 in /  0 mm 0 W/m2
03:35 46.8 °F /  8.2 °C 44.3 °F /  6.8 °C 30.24 in /  1023.9 hPa WNW 7.0 mph /  11.3 km/h 13.0 mph /  20.9 km/h 91 % 0.00 in /  0 mm 0 W/m2
03:40 46.8 °F /  8.2 °C 44.3 °F /  6.8 °C 30.24 in /  1023.9 hPa WNW 7.0 mph /  11.3 km/h 12.0 mph /  19.3 km/h 91 % 0.00 in /  0 mm 0 W/m2
03:45 46.6 °F /  8.1 °C 44.1 °F /  6.7 °C 30.24 in /  1023.9 hPa WNW 9.0 mph /  14.5 km/h 14.0 mph /  22.5 km/h 91 % 0.00 in /  0 mm 0 W/m2
03:50 46.6 °F /  8.1 °C 44.1 °F /  6.7 °C 30.23 in /  1023.6 hPa WNW 9.0 mph /  14.5 km/h 13.0 mph /  20.9 km/h 91 % 0.00 in /  0 mm 0 W/m2
03:55 46.6 °F /  8.1 °C 44.1 °F /  6.7 °C 30.23 in /  1023.6 hPa WNW 9.0 mph /  14.5 km/h 15.0 mph /  24.1 km/h 91 % 0.00 in /  0 mm 0 W/m2
04:00 46.6 °F /  8.1 °C 44.1 °F /  6.7 °C 30.23 in /  1023.6 hPa WNW 8.0 mph /  12.9 km/h 13.0 mph /  20.9 km/h 91 % 0.00 in /  0 mm 0 W/m2
04:05 46.6 °F /  8.1 °C 44.4 °F /  6.9 °C 30.23 in /  1023.6 hPa WNW 9.0 mph /  14.5 km/h 12.0 mph /  19.3 km/h 92 % 0.00 in /  0 mm 0 W/m2
04:10 46.6 °F /  8.1 °C 44.4 °F /  6.9 °C 30.23 in /  1023.6 hPa WNW 9.0 mph /  14.5 km/h 13.0 mph /  20.9 km/h 92 % 0.00 in /  0 mm 0 W/m2
04:15 46.6 °F /  8.1 °C 44.4 °F /  6.9 °C 30.23 in /  1023.6 hPa WNW 8.0 mph /  12.9 km/h 10.0 mph /  16.1 km/h 92 % 0.00 in /  0 mm 0 W/m2
04:20 46.8 °F /  8.2 °C 44.6 °F /  7 °C 30.23 in /  1023.6 hPa WNW 9.0 mph /  14.5 km/h 11.0 mph /  17.7 km/h 92 % 0.00 in /  0 mm 0 W/m2
04:25 46.8 °F /  8.2 °C 44.6 °F /  7 °C 30.23 in /  1023.6 hPa WNW 7.0 mph /  11.3 km/h 12.0 mph /  19.3 km/h 92 % 0.00 in /  0 mm 0 W/m2
04:30 46.8 °F /  8.2 °C 44.6 °F /  7 °C 30.23 in /  1023.6 hPa WNW 8.0 mph /  12.9 km/h 11.0 mph /  17.7 km/h 92 % 0.00 in /  0 mm 0 W/m2
04:35 46.9 °F /  8.3 °C 44.7 °F /  7.1 °C 30.23 in /  1023.6 hPa WNW 8.0 mph /  12.9 km/h 15.0 mph /  24.1 km/h 92 % 0.00 in /  0 mm 0 W/m2
04:40 46.9 °F /  8.3 °C 44.7 °F /  7.1 °C 30.24 in /  1023.9 hPa WNW 8.0 mph /  12.9 km/h 15.0 mph /  24.1 km/h 92 % 0.00 in /  0 mm 0 W/m2
04:45 47.1 °F /  8.4 °C 44.9 °F /  7.2 °C 30.24 in /  1023.9 hPa NW 7.0 mph /  11.3 km/h 11.0 mph /  17.7 km/h 92 % 0.00 in /  0 mm 0 W/m2
05:01 47.3 °F /  8.5 °C 45.1 °F /  7.3 °C 30.24 in /  1023.9 hPa WNW 7.0 mph /  11.3 km/h 11.0 mph /  17.7 km/h 92 % 0.00 in /  0 mm 0 W/m2
05:16 47.5 °F /  8.6 °C 45.0 °F /  7.2 °C 30.24 in /  1023.9 hPa WNW 7.0 mph /  11.3 km/h 11.0 mph /  17.7 km/h 91 % 0.00 in /  0 mm 0 W/m2
05:21 47.5 °F /  8.6 °C 45.0 °F /  7.2 °C 30.24 in /  1023.9 hPa WNW 6.0 mph /  9.7 km/h 11.0 mph /  17.7 km/h 91 % 0.00 in /  0 mm 0 W/m2
05:26 47.5 °F /  8.6 °C 45.3 °F /  7.4 °C 30.24 in /  1023.9 hPa WNW 8.0 mph /  12.9 km/h 13.0 mph /  20.9 km/h 92 % 0.00 in /  0 mm 0 W/m2
05:31 47.5 °F /  8.6 °C 45.0 °F /  7.2 °C 30.24 in /  1023.9 hPa WNW 6.0 mph /  9.7 km/h 10.0 mph /  16.1 km/h 91 % 0.00 in /  0 mm 0 W/m2
05:36 47.5 °F /  8.6 °C 45.0 °F /  7.2 °C 30.24 in /  1023.9 hPa WNW 6.0 mph /  9.7 km/h 9.0 mph /  14.5 km/h 91 % 0.00 in /  0 mm 0 W/m2
05:41 47.5 °F /  8.6 °C 45.0 °F /  7.2 °C 30.24 in /  1023.9 hPa WNW 5.0 mph /  8 km/h 10.0 mph /  16.1 km/h 91 % 0.00 in /  0 mm 0 W/m2
05:46 47.5 °F /  8.6 °C 45.0 °F /  7.2 °C 30.24 in /  1023.9 hPa WNW 6.0 mph /  9.7 km/h 9.0 mph /  14.5 km/h 91 % 0.00 in /  0 mm 0 W/m2
05:51 47.5 °F /  8.6 °C 45.0 °F /  7.2 °C 30.24 in /  1023.9 hPa WNW 6.0 mph /  9.7 km/h 8.0 mph /  12.9 km/h 91 % 0.00 in /  0 mm 0 W/m2
05:56 47.5 °F /  8.6 °C 45.0 °F /  7.2 °C 30.25 in /  1024.3 hPa WNW 6.0 mph /  9.7 km/h 9.0 mph /  14.5 km/h 91 % 0.00 in /  0 mm 0 W/m2
06:01 47.3 °F /  8.5 °C 44.8 °F /  7.1 °C 30.25 in /  1024.3 hPa WNW 8.0 mph /  12.9 km/h 10.0 mph /  16.1 km/h 91 % 0.00 in /  0 mm 0 W/m2
06:16 47.3 °F /  8.5 °C 45.1 °F /  7.3 °C 30.25 in /  1024.3 hPa WNW 5.0 mph /  8 km/h 8.0 mph /  12.9 km/h 92 % 0.00 in /  0 mm 0 W/m2
06:26 47.1 °F /  8.4 °C 44.9 °F /  7.2 °C 30.25 in /  1024.3 hPa NW 6.0 mph /  9.7 km/h 10.0 mph /  16.1 km/h 92 % 0.00 in /  0 mm 0 W/m2
06:31 47.3 °F /  8.5 °C 45.1 °F /  7.3 °C 30.25 in /  1024.3 hPa WNW 6.0 mph /  9.7 km/h 10.0 mph /  16.1 km/h 92 % 0.00 in /  0 mm 0 W/m2
06:36 47.3 °F /  8.5 °C 45.1 °F /  7.3 °C 30.25 in /  1024.3 hPa WNW 6.0 mph /  9.7 km/h 10.0 mph /  16.1 km/h 92 % 0.00 in /  0 mm 0 W/m2
06:46 47.3 °F /  8.5 °C 45.1 °F /  7.3 °C 30.25 in /  1024.3 hPa WNW 8.0 mph /  12.9 km/h 12.0 mph /  19.3 km/h 92 % 0.00 in /  0 mm 0 W/m2
06:51 47.3 °F /  8.5 °C 45.1 °F /  7.3 °C 30.25 in /  1024.3 hPa WNW 8.0 mph /  12.9 km/h 12.0 mph /  19.3 km/h 92 % 0.00 in /  0 mm 0 W/m2
06:56 47.3 °F /  8.5 °C 45.1 °F /  7.3 °C 30.26 in /  1024.6 hPa WNW 8.0 mph /  12.9 km/h 14.0 mph /  22.5 km/h 92 % 0.00 in /  0 mm 0 W/m2
07:01 47.3 °F /  8.5 °C 45.1 °F /  7.3 °C 30.26 in /  1024.6 hPa WNW 8.0 mph /  12.9 km/h 13.0 mph /  20.9 km/h 92 % 0.00 in /  0 mm 0 W/m2
07:11 47.1 °F /  8.4 °C 44.9 °F /  7.2 °C 30.26 in /  1024.6 hPa NW 6.0 mph /  9.7 km/h 10.0 mph /  16.1 km/h 92 % 0.00 in /  0 mm 0 W/m2
07:21 47.1 °F /  8.4 °C 44.9 °F /  7.2 °C 30.26 in /  1024.6 hPa WNW 8.0 mph /  12.9 km/h 13.0 mph /  20.9 km/h 92 % 0.00 in /  0 mm 0 W/m2
07:26 47.1 °F /  8.4 °C 44.9 °F /  7.2 °C 30.26 in /  1024.6 hPa WNW 7.0 mph /  11.3 km/h 11.0 mph /  17.7 km/h 92 % 0.00 in /  0 mm 0 W/m2
07:31 47.1 °F /  8.4 °C 45.2 °F /  7.3 °C 30.26 in /  1024.6 hPa WNW 9.0 mph /  14.5 km/h 14.0 mph /  22.5 km/h 93 % 0.00 in /  0 mm 0 W/m2
07:46 47.5 °F /  8.6 °C 45.6 °F /  7.6 °C 30.27 in /  1024.9 hPa WNW 7.0 mph /  11.3 km/h 10.0 mph /  16.1 km/h 93 % 0.00 in /  0 mm 0 W/m2
07:51 47.5 °F /  8.6 °C 45.6 °F /  7.6 °C 30.27 in /  1024.9 hPa WNW 5.0 mph /  8 km/h 8.0 mph /  12.9 km/h 93 % 0.00 in /  0 mm 0 W/m2
07:56 47.5 °F /  8.6 °C 45.6 °F /  7.6 °C 30.27 in /  1024.9 hPa WNW 5.0 mph /  8 km/h 9.0 mph /  14.5 km/h 93 % 0.00 in /  0 mm 0 W/m2
08:01 47.3 °F /  8.5 °C 45.4 °F /  7.4 °C 30.27 in /  1024.9 hPa WNW 5.0 mph /  8 km/h 8.0 mph /  12.9 km/h 93 % 0.00 in /  0 mm 0 W/m2
08:06 47.3 °F /  8.5 °C 45.4 °F /  7.4 °C 30.27 in /  1024.9 hPa WNW 2.0 mph /  3.2 km/h 5.0 mph /  8 km/h 93 % 0.00 in /  0 mm 0 W/m2
08:11 47.1 °F /  8.4 °C 45.2 °F /  7.3 °C 30.28 in /  1025.3 hPa NW 4.0 mph /  6.4 km/h 6.0 mph /  9.7 km/h 93 % 0.00 in /  0 mm 5 W/m2
08:21 47.1 °F /  8.4 °C 45.2 °F /  7.3 °C 30.28 in /  1025.3 hPa NW 4.0 mph /  6.4 km/h 7.0 mph /  11.3 km/h 93 % 0.00 in /  0 mm 7 W/m2
08:31 47.1 °F /  8.4 °C 45.2 °F /  7.3 °C 30.28 in /  1025.3 hPa WNW 4.0 mph /  6.4 km/h 6.0 mph /  9.7 km/h 93 % 0.00 in /  0 mm 11 W/m2
08:41 47.1 °F /  8.4 °C 45.5 °F /  7.5 °C 30.29 in /  1025.6 hPa WNW 4.0 mph /  6.4 km/h 6.0 mph /  9.7 km/h 94 % 0.00 in /  0 mm 18 W/m2
08:46 47.1 °F /  8.4 °C 45.5 °F /  7.5 °C 30.29 in /  1025.6 hPa NW 2.0 mph /  3.2 km/h 5.0 mph /  8 km/h 94 % 0.00 in /  0 mm 23 W/m2
09:01 47.1 °F /  8.4 °C 45.5 °F /  7.5 °C 30.29 in /  1025.6 hPa Calm   1.0 mph /  1.6 km/h 94 % 0.00 in /  0 mm 30 W/m2
09:06 47.1 °F /  8.4 °C 45.5 °F /  7.5 °C 30.30 in /  1026 hPa Calm   1.0 mph /  1.6 km/h 94 % 0.00 in /  0 mm 40 W/m2
09:11 47.1 °F /  8.4 °C 45.5 °F /  7.5 °C 30.30 in /  1026 hPa WNW 3.0 mph /  4.8 km/h 5.0 mph /  8 km/h 94 % 0.00 in /  0 mm 35 W/m2
09:16 47.3 °F /  8.5 °C 45.7 °F /  7.6 °C 30.30 in /  1026 hPa WNW 3.0 mph /  4.8 km/h 5.0 mph /  8 km/h 94 % 0.00 in /  0 mm 30 W/m2
09:31 47.5 °F /  8.6 °C 45.8 °F /  7.7 °C 30.30 in /  1026 hPa WNW 4.0 mph /  6.4 km/h 7.0 mph /  11.3 km/h 94 % 0.00 in /  0 mm 35 W/m2
09:36 47.5 °F /  8.6 °C 45.8 °F /  7.7 °C 30.30 in /  1026 hPa WNW 4.0 mph /  6.4 km/h 7.0 mph /  11.3 km/h 94 % 0.00 in /  0 mm 26 W/m2
09:46 47.5 °F /  8.6 °C 45.6 °F /  7.6 °C 30.30 in /  1026 hPa NW 5.0 mph /  8 km/h 8.0 mph /  12.9 km/h 93 % 0.00 in /  0 mm 32 W/m2
09:51 47.5 °F /  8.6 °C 45.6 °F /  7.6 °C 30.30 in /  1026 hPa NW 4.0 mph /  6.4 km/h 6.0 mph /  9.7 km/h 93 % 0.00 in /  0 mm 37 W/m2
09:57 47.7 °F /  8.7 °C 45.7 °F /  7.6 °C 30.31 in /  1026.3 hPa NW 5.0 mph /  8 km/h 8.0 mph /  12.9 km/h 93 % 0.00 in /  0 mm 46 W/m2
10:02 47.7 °F /  8.7 °C 45.7 °F /  7.6 °C 30.30 in /  1026 hPa WNW 5.0 mph /  8 km/h 7.0 mph /  11.3 km/h 93 % 0.00 in /  0 mm 51 W/m2
10:07 47.7 °F /  8.7 °C 45.5 °F /  7.5 °C 30.31 in /  1026.3 hPa NW 5.0 mph /  8 km/h 7.0 mph /  11.3 km/h 92 % 0.00 in /  0 mm 49 W/m2
10:12 47.8 °F /  8.8 °C 45.6 °F /  7.6 °C 30.31 in /  1026.3 hPa WNW 5.0 mph /  8 km/h 9.0 mph /  14.5 km/h 92 % 0.00 in /  0 mm 58 W/m2
10:17 48.0 °F /  8.9 °C 45.8 °F /  7.7 °C 30.31 in /  1026.3 hPa NW 6.0 mph /  9.7 km/h 8.0 mph /  12.9 km/h 92 % 0.00 in /  0 mm 46 W/m2
10:22 48.0 °F /  8.9 °C 45.5 °F /  7.5 °C 30.31 in /  1026.3 hPa NW 4.0 mph /  6.4 km/h 7.0 mph /  11.3 km/h 91 % 0.00 in /  0 mm 44 W/m2
10:27 48.2 °F /  9 °C 45.7 °F /  7.6 °C 30.31 in /  1026.3 hPa WNW 3.0 mph /  4.8 km/h 8.0 mph /  12.9 km/h 91 % 0.00 in /  0 mm 28 W/m2
10:32 48.4 °F /  9.1 °C 45.9 °F /  7.7 °C 30.31 in /  1026.3 hPa NW 2.0 mph /  3.2 km/h 5.0 mph /  8 km/h 91 % 0.00 in /  0 mm 28 W/m2
10:42 48.4 °F /  9.1 °C 45.9 °F /  7.7 °C 30.31 in /  1026.3 hPa WNW 2.0 mph /  3.2 km/h 5.0 mph /  8 km/h 91 % 0.00 in /  0 mm 49 W/m2
10:47 48.4 °F /  9.1 °C 45.6 °F /  7.6 °C 30.31 in /  1026.3 hPa NW 4.0 mph /  6.4 km/h 7.0 mph /  11.3 km/h 90 % 0.00 in /  0 mm 60 W/m2
10:52 48.4 °F /  9.1 °C 45.6 °F /  7.6 °C 30.32 in /  1026.6 hPa NW 6.0 mph /  9.7 km/h 8.0 mph /  12.9 km/h 90 % 0.00 in /  0 mm 58 W/m2
10:57 48.6 °F /  9.2 °C 45.8 °F /  7.7 °C 30.32 in /  1026.6 hPa WNW 4.0 mph /  6.4 km/h 6.0 mph /  9.7 km/h 90 % 0.00 in /  0 mm 49 W/m2
11:02 48.6 °F /  9.2 °C 45.8 °F /  7.7 °C 30.32 in /  1026.6 hPa NW 4.0 mph /  6.4 km/h 7.0 mph /  11.3 km/h 90 % 0.00 in /  0 mm 62 W/m2
11:07 48.6 °F /  9.2 °C 45.5 °F /  7.5 °C 30.32 in /  1026.6 hPa NW 2.0 mph /  3.2 km/h 5.0 mph /  8 km/h 89 % 0.00 in /  0 mm 60 W/m2
11:12 48.7 °F /  9.3 °C 45.6 °F /  7.6 °C 30.32 in /  1026.6 hPa NW 3.0 mph /  4.8 km/h 7.0 mph /  11.3 km/h 89 % 0.00 in /  0 mm 69 W/m2
11:17 48.7 °F /  9.3 °C 45.3 °F /  7.4 °C 30.32 in /  1026.6 hPa NNW 5.0 mph /  8 km/h 8.0 mph /  12.9 km/h 88 % 0.00 in /  0 mm 63 W/m2
11:22 48.7 °F /  9.3 °C 45.0 °F /  7.2 °C 30.32 in /  1026.6 hPa NNW 8.0 mph /  12.9 km/h 12.0 mph /  19.3 km/h 87 % 0.00 in /  0 mm 62 W/m2
11:27 48.7 °F /  9.3 °C 45.0 °F /  7.2 °C 30.32 in /  1026.6 hPa North 6.0 mph /  9.7 km/h 11.0 mph /  17.7 km/h 87 % 0.00 in /  0 mm 91 W/m2
11:32 48.7 °F /  9.3 °C 45.0 °F /  7.2 °C 30.32 in /  1026.6 hPa North 4.0 mph /  6.4 km/h 7.0 mph /  11.3 km/h 87 % 0.00 in /  0 mm 77 W/m2
11:37 48.7 °F /  9.3 °C 45.0 °F /  7.2 °C 30.32 in /  1026.6 hPa NNE 1.0 mph /  1.6 km/h 5.0 mph /  8 km/h 87 % 0.00 in /  0 mm 118 W/m2
11:42 48.7 °F /  9.3 °C 45.0 °F /  7.2 °C 30.32 in /  1026.6 hPa NE 5.0 mph /  8 km/h 8.0 mph /  12.9 km/h 87 % 0.00 in /  0 mm 95 W/m2
11:47 48.7 °F /  9.3 °C 44.7 °F /  7.1 °C 30.32 in /  1026.6 hPa NNE 6.0 mph /  9.7 km/h 8.0 mph /  12.9 km/h 86 % 0.00 in /  0 mm 116 W/m2
11:52 48.7 °F /  9.3 °C 44.7 °F /  7.1 °C 30.32 in /  1026.6 hPa NNE 5.0 mph /  8 km/h 8.0 mph /  12.9 km/h 86 % 0.00 in /  0 mm 116 W/m2
11:57 48.7 °F /  9.3 °C 44.4 °F /  6.9 °C 30.32 in /  1026.6 hPa North 5.0 mph /  8 km/h 7.0 mph /  11.3 km/h 85 % 0.00 in /  0 mm 83 W/m2
12:02 48.7 °F /  9.3 °C 44.1 °F /  6.7 °C 30.32 in /  1026.6 hPa North 3.0 mph /  4.8 km/h 7.0 mph /  11.3 km/h 84 % 0.00 in /  0 mm 91 W/m2
12:07 48.7 °F /  9.3 °C 43.8 °F /  6.6 °C 30.32 in /  1026.6 hPa North 2.0 mph /  3.2 km/h 6.0 mph /  9.7 km/h 83 % 0.00 in /  0 mm 109 W/m2
12:12 48.7 °F /  9.3 °C 43.8 °F /  6.6 °C 30.32 in /  1026.6 hPa NNW 3.0 mph /  4.8 km/h 6.0 mph /  9.7 km/h 83 % 0.00 in /  0 mm 118 W/m2
12:17 48.9 °F /  9.4 °C 43.7 °F /  6.5 °C 30.32 in /  1026.6 hPa NNW 4.0 mph /  6.4 km/h 7.0 mph /  11.3 km/h 82 % 0.00 in /  0 mm 121 W/m2
12:22 48.9 °F /  9.4 °C 43.7 °F /  6.5 °C 30.32 in /  1026.6 hPa North 4.0 mph /  6.4 km/h 6.0 mph /  9.7 km/h 82 % 0.00 in /  0 mm 102 W/m2
12:27 49.1 °F /  9.5 °C 43.5 °F /  6.4 °C 30.32 in /  1026.6 hPa NNW 1.0 mph /  1.6 km/h 4.0 mph /  6.4 km/h 81 % 0.00 in /  0 mm 146 W/m2
12:32 49.3 °F /  9.6 °C 43.7 °F /  6.5 °C 30.32 in /  1026.6 hPa NNW 5.0 mph /  8 km/h 7.0 mph /  11.3 km/h 81 % 0.00 in /  0 mm 221 W/m2
12:37 49.3 °F /  9.6 °C 43.4 °F /  6.3 °C 30.31 in /  1026.3 hPa NNW 3.0 mph /  4.8 km/h 5.0 mph /  8 km/h 80 % 0.00 in /  0 mm 132 W/m2
12:42 49.5 °F /  9.7 °C 43.2 °F /  6.2 °C 30.32 in /  1026.6 hPa NNW 3.0 mph /  4.8 km/h 6.0 mph /  9.7 km/h 79 % 0.00 in /  0 mm 272 W/m2
12:47 49.6 °F /  9.8 °C 43.4 °F /  6.3 °C 30.32 in /  1026.6 hPa NW 1.0 mph /  1.6 km/h 4.0 mph /  6.4 km/h 79 % 0.00 in /  0 mm 95 W/m2
12:52 49.6 °F /  9.8 °C 43.1 °F /  6.2 °C 30.32 in /  1026.6 hPa NW 3.0 mph /  4.8 km/h 5.0 mph /  8 km/h 78 % 0.00 in /  0 mm 91 W/m2
12:57 49.6 °F /  9.8 °C 42.7 °F /  5.9 °C 30.32 in /  1026.6 hPa NW 1.0 mph /  1.6 km/h 4.0 mph /  6.4 km/h 77 % 0.00 in /  0 mm 216 W/m2
13:02 49.8 °F /  9.9 °C 42.9 °F /  6.1 °C 30.32 in /  1026.6 hPa Calm     77 % 0.00 in /  0 mm 118 W/m2
13:07 50.2 °F /  10.1 °C 42.9 °F /  6.1 °C 30.32 in /  1026.6 hPa NW 1.0 mph /  1.6 km/h 4.0 mph /  6.4 km/h 76 % 0.00 in /  0 mm 225 W/m2
13:12 50.5 °F /  10.3 °C 43.3 °F /  6.3 °C 30.32 in /  1026.6 hPa NW 2.0 mph /  3.2 km/h 5.0 mph /  8 km/h 76 % 0.00 in /  0 mm 220 W/m2
13:17 50.7 °F /  10.4 °C 42.4 °F /  5.8 °C 30.32 in /  1026.6 hPa NNW 4.0 mph /  6.4 km/h 6.0 mph /  9.7 km/h 73 % 0.00 in /  0 mm 207 W/m2
13:22 50.9 °F /  10.5 °C 42.6 °F /  5.9 °C 30.32 in /  1026.6 hPa NW 3.0 mph /  4.8 km/h 5.0 mph /  8 km/h 73 % 0.00 in /  0 mm 204 W/m2
13:27 51.1 °F /  10.6 °C 42.4 °F /  5.8 °C 30.32 in /  1026.6 hPa North 1.0 mph /  1.6 km/h 3.0 mph /  4.8 km/h 72 % 0.00 in /  0 mm 197 W/m2
13:32 51.6 °F /  10.9 °C 42.5 °F /  5.8 °C 30.32 in /  1026.6 hPa NW 3.0 mph /  4.8 km/h 6.0 mph /  9.7 km/h 71 % 0.00 in /  0 mm 192 W/m2
13:37 51.4 °F /  10.8 °C 42.3 °F /  5.7 °C 30.32 in /  1026.6 hPa NNW 3.0 mph /  4.8 km/h 4.0 mph /  6.4 km/h 71 % 0.00 in /  0 mm 197 W/m2
13:42 51.6 °F /  10.9 °C 42.9 °F /  6.1 °C 30.32 in /  1026.6 hPa NW 4.0 mph /  6.4 km/h 6.0 mph /  9.7 km/h 72 % 0.00 in /  0 mm 183 W/m2
13:45 51.6 °F /  10.9 °C 42.9 °F /  6.1 °C 30.32 in /  1026.6 hPa WNW 4.0 mph /  6.4 km/h 7.0 mph /  11.3 km/h 72 % 0.00 in /  0 mm 181 W/m2
13:50 51.6 °F /  10.9 °C 42.9 °F /  6.1 °C 30.32 in /  1026.6 hPa Calm   3.0 mph /  4.8 km/h 72 % 0.00 in /  0 mm 174 W/m2
13:55 51.8 °F /  11 °C 43.1 °F /  6.2 °C 30.32 in /  1026.6 hPa NW 4.0 mph /  6.4 km/h 7.0 mph /  11.3 km/h 72 % 0.00 in /  0 mm 178 W/m2
14:00 51.8 °F /  11 °C 42.7 °F /  5.9 °C 30.32 in /  1026.6 hPa WNW 4.0 mph /  6.4 km/h 6.0 mph /  9.7 km/h 71 % 0.00 in /  0 mm 174 W/m2
14:05 51.8 °F /  11 °C 43.1 °F /  6.2 °C 30.32 in /  1026.6 hPa NW 1.0 mph /  1.6 km/h 5.0 mph /  8 km/h 72 % 0.00 in /  0 mm 111 W/m2
14:10 51.6 °F /  10.9 °C 42.5 °F /  5.8 °C 30.32 in /  1026.6 hPa WNW 5.0 mph /  8 km/h 6.0 mph /  9.7 km/h 71 % 0.00 in /  0 mm 163 W/m2
14:15 51.6 °F /  10.9 °C 42.5 °F /  5.8 °C 30.32 in /  1026.6 hPa NW 4.0 mph /  6.4 km/h 6.0 mph /  9.7 km/h 71 % 0.00 in /  0 mm 149 W/m2
14:20 51.6 °F /  10.9 °C 42.9 °F /  6.1 °C 30.32 in /  1026.6 hPa NW 3.0 mph /  4.8 km/h 6.0 mph /  9.7 km/h 72 % 0.00 in /  0 mm 142 W/m2
14:25 51.4 °F /  10.8 °C 42.7 °F /  5.9 °C 30.32 in /  1026.6 hPa NW 2.0 mph /  3.2 km/h 5.0 mph /  8 km/h 72 % 0.00 in /  0 mm 69 W/m2
14:30 51.3 °F /  10.7 °C 42.5 °F /  5.8 °C 30.32 in /  1026.6 hPa NW 2.0 mph /  3.2 km/h 5.0 mph /  8 km/h 72 % 0.00 in /  0 mm 42 W/m2
14:35 50.9 °F /  10.5 °C 42.2 °F /  5.7 °C 30.32 in /  1026.6 hPa NW 1.0 mph /  1.6 km/h 5.0 mph /  8 km/h 72 % 0.00 in /  0 mm 47 W/m2
14:40 50.5 °F /  10.3 °C 42.2 °F /  5.7 °C 30.33 in /  1027 hPa West 1.0 mph /  1.6 km/h 4.0 mph /  6.4 km/h 73 % 0.00 in /  0 mm 40 W/m2
14:45 50.4 °F /  10.2 °C 42.4 °F /  5.8 °C 30.33 in /  1027 hPa Calm   2.0 mph /  3.2 km/h 74 % 0.00 in /  0 mm 37 W/m2
14:50 50.0 °F /  10 °C 42.4 °F /  5.8 °C 30.33 in /  1027 hPa West 2.0 mph /  3.2 km/h 5.0 mph /  8 km/h 75 % 0.00 in /  0 mm 28 W/m2
14:55 49.6 °F /  9.8 °C 42.0 °F /  5.6 °C 30.33 in /  1027 hPa West 2.0 mph /  3.2 km/h 5.0 mph /  8 km/h 75 % 0.00 in /  0 mm 30 W/m2
15:00 49.5 °F /  9.7 °C 42.2 °F /  5.7 °C 30.33 in /  1027 hPa Calm   2.0 mph /  3.2 km/h 76 % 0.00 in /  0 mm 30 W/m2
15:01 49.5 °F /  9.7 °C 42.2 °F /  5.7 °C 30.33 in /  1027 hPa Calm   2.0 mph /  3.2 km/h 76 % 0.00 in /  0 mm 32 W/m2
15:06 49.3 °F /  9.6 °C 42.4 °F /  5.8 °C 30.33 in /  1027 hPa West 1.0 mph /  1.6 km/h 2.0 mph /  3.2 km/h 77 % 0.00 in /  0 mm 30 W/m2
15:11 49.1 °F /  9.5 °C 42.2 °F /  5.7 °C 30.33 in /  1027 hPa Calm     77 % 0.00 in /  0 mm 26 W/m2
15:16 48.9 °F /  9.4 °C 42.4 °F /  5.8 °C 30.33 in /  1027 hPa Calm     78 % 0.00 in /  0 mm 19 W/m2
15:21 48.7 °F /  9.3 °C 42.2 °F /  5.7 °C 30.33 in /  1027 hPa Calm     78 % 0.00 in /  0 mm 16 W/m2
15:26 48.6 °F /  9.2 °C 42.3 °F /  5.7 °C 30.33 in /  1027 hPa Calm     79 % 0.00 in /  0 mm 12 W/m2
15:31 48.4 °F /  9.1 °C 42.2 °F /  5.7 °C 30.33 in /  1027 hPa Calm     79 % 0.00 in /  0 mm 11 W/m2
15:36 48.2 °F /  9 °C 42.0 °F /  5.6 °C 30.33 in /  1027 hPa Calm   1.0 mph /  1.6 km/h 79 % 0.00 in /  0 mm 9 W/m2
15:41 47.8 °F /  8.8 °C 41.6 °F /  5.3 °C 30.33 in /  1027 hPa Calm     79 % 0.00 in /  0 mm 7 W/m2
15:46 47.7 °F /  8.7 °C 41.5 °F /  5.3 °C 30.33 in /  1027 hPa Calm     79 % 0.00 in /  0 mm 5 W/m2
15:51 47.1 °F /  8.4 °C 41.3 °F /  5.2 °C 30.33 in /  1027 hPa Calm     80 % 0.00 in /  0 mm 5 W/m2
15:56 46.8 °F /  8.2 °C 40.9 °F /  4.9 °C 30.33 in /  1027 hPa Calm     80 % 0.00 in /  0 mm 0 W/m2
16:01 46.4 °F /  8 °C 40.9 °F /  4.9 °C 30.33 in /  1027 hPa Calm     81 % 0.00 in /  0 mm 0 W/m2
16:06 46.0 °F /  7.8 °C 40.5 °F /  4.7 °C 30.33 in /  1027 hPa Calm     81 % 0.00 in /  0 mm 0 W/m2
16:11 45.7 °F /  7.6 °C 40.5 °F /  4.7 °C 30.34 in /  1027.3 hPa Calm     82 % 0.00 in /  0 mm 0 W/m2
16:16 45.1 °F /  7.3 °C 40.3 °F /  4.6 °C 30.34 in /  1027.3 hPa Calm     83 % 0.00 in /  0 mm 0 W/m2
16:21 45.0 °F /  7.2 °C 40.1 °F /  4.5 °C 30.34 in /  1027.3 hPa Calm     83 % 0.00 in /  0 mm 0 W/m2
16:26 44.6 °F /  7 °C 40.1 °F /  4.5 °C 30.34 in /  1027.3 hPa Calm   1.0 mph /  1.6 km/h 84 % 0.00 in /  0 mm 0 W/m2
16:27 44.4 °F /  6.9 °C 39.9 °F /  4.4 °C 30.34 in /  1027.3 hPa Calm     84 % 0.00 in /  0 mm 0 W/m2
16:32 44.2 °F /  6.8 °C 39.7 °F /  4.3 °C 30.34 in /  1027.3 hPa Calm   5.0 mph /  8 km/h 84 % 0.00 in /  0 mm 0 W/m2
16:37 43.9 °F /  6.6 °C 39.7 °F /  4.3 °C 30.34 in /  1027.3 hPa NW 3.0 mph /  4.8 km/h 5.0 mph /  8 km/h 85 % 0.00 in /  0 mm 0 W/m2
16:42 43.7 °F /  6.5 °C 39.8 °F /  4.3 °C 30.34 in /  1027.3 hPa Calm   2.0 mph /  3.2 km/h 86 % 0.00 in /  0 mm 0 W/m2
16:47 43.5 °F /  6.4 °C 39.6 °F /  4.2 °C 30.34 in /  1027.3 hPa Calm     86 % 0.00 in /  0 mm 0 W/m2
16:52 43.2 °F /  6.2 °C 39.3 °F /  4.1 °C 30.35 in /  1027.7 hPa Calm     86 % 0.00 in /  0 mm 0 W/m2
16:57 42.8 °F /  6 °C 38.9 °F /  3.8 °C 30.35 in /  1027.7 hPa Calm     86 % 0.00 in /  0 mm 0 W/m2
17:02 42.4 °F /  5.8 °C 38.8 °F /  3.8 °C 30.35 in /  1027.7 hPa NW 2.0 mph /  3.2 km/h 4.0 mph /  6.4 km/h 87 % 0.00 in /  0 mm 0 W/m2
17:07 42.4 °F /  5.8 °C 39.1 °F /  3.9 °C 30.35 in /  1027.7 hPa WNW 3.0 mph /  4.8 km/h 6.0 mph /  9.7 km/h 88 % 0.00 in /  0 mm 0 W/m2
17:12 42.4 °F /  5.8 °C 39.1 °F /  3.9 °C 30.35 in /  1027.7 hPa NW 3.0 mph /  4.8 km/h 5.0 mph /  8 km/h 88 % 0.00 in /  0 mm 0 W/m2
17:17 42.3 °F /  5.7 °C 39.2 °F /  4 °C 30.35 in /  1027.7 hPa NW 3.0 mph /  4.8 km/h 5.0 mph /  8 km/h 89 % 0.00 in /  0 mm 0 W/m2
17:22 42.3 °F /  5.7 °C 39.2 °F /  4 °C 30.35 in /  1027.7 hPa WNW 2.0 mph /  3.2 km/h 4.0 mph /  6.4 km/h 89 % 0.00 in /  0 mm 0 W/m2
17:27 42.1 °F /  5.6 °C 39.1 °F /  3.9 °C 30.35 in /  1027.7 hPa WNW 1.0 mph /  1.6 km/h 4.0 mph /  6.4 km/h 89 % 0.00 in /  0 mm 0 W/m2
17:32 42.1 °F /  5.6 °C 39.4 °F /  4.1 °C 30.36 in /  1028 hPa WNW 3.0 mph /  4.8 km/h 5.0 mph /  8 km/h 90 % 0.00 in /  0 mm 0 W/m2
17:37 42.1 °F /  5.6 °C 39.4 °F /  4.1 °C 30.36 in /  1028 hPa WNW 4.0 mph /  6.4 km/h 6.0 mph /  9.7 km/h 90 % 0.00 in /  0 mm 0 W/m2
17:42 42.3 °F /  5.7 °C 39.5 °F /  4.2 °C 30.36 in /  1028 hPa WNW 4.0 mph /  6.4 km/h 6.0 mph /  9.7 km/h 90 % 0.00 in /  0 mm 0 W/m2
17:47 42.3 °F /  5.7 °C 39.5 °F /  4.2 °C 30.36 in /  1028 hPa NW 3.0 mph /  4.8 km/h 6.0 mph /  9.7 km/h 90 % 0.00 in /  0 mm 0 W/m2
17:52 42.3 °F /  5.7 °C 39.5 °F /  4.2 °C 30.36 in /  1028 hPa WNW 4.0 mph /  6.4 km/h 5.0 mph /  8 km/h 90 % 0.00 in /  0 mm 0 W/m2
17:57 42.3 °F /  5.7 °C 39.5 °F /  4.2 °C 30.36 in /  1028 hPa WNW 2.0 mph /  3.2 km/h 4.0 mph /  6.4 km/h 90 % 0.00 in /  0 mm 0 W/m2
18:02 42.1 °F /  5.6 °C 39.4 °F /  4.1 °C 30.37 in /  1028.3 hPa WNW 3.0 mph /  4.8 km/h 5.0 mph /  8 km/h 90 % 0.00 in /  0 mm 0 W/m2
18:07 41.9 °F /  5.5 °C 39.2 °F /  4 °C 30.37 in /  1028.3 hPa WNW 1.0 mph /  1.6 km/h 2.0 mph /  3.2 km/h 90 % 0.00 in /  0 mm 0 W/m2
18:12 41.7 °F /  5.4 °C 39.0 °F /  3.9 °C 30.37 in /  1028.3 hPa WNW 2.0 mph /  3.2 km/h 4.0 mph /  6.4 km/h 90 % 0.00 in /  0 mm 0 W/m2
18:17 41.5 °F /  5.3 °C 38.8 °F /  3.8 °C 30.37 in /  1028.3 hPa Calm   1.0 mph /  1.6 km/h 90 % 0.00 in /  0 mm 0 W/m2
18:18 41.5 °F /  5.3 °C 38.8 °F /  3.8 °C 30.37 in /  1028.3 hPa Calm     90 % 0.00 in /  0 mm 0 W/m2
18:23 41.4 °F /  5.2 °C 38.6 °F /  3.7 °C 30.37 in /  1028.3 hPa Calm   1.0 mph /  1.6 km/h 90 % 0.00 in /  0 mm 0 W/m2
18:28 41.2 °F /  5.1 °C 38.5 °F /  3.6 °C 30.37 in /  1028.3 hPa Calm     90 % 0.00 in /  0 mm 0 W/m2
18:33 41.0 °F /  5 °C 38.3 °F /  3.5 °C 30.37 in /  1028.3 hPa WNW 1.0 mph /  1.6 km/h 2.0 mph /  3.2 km/h 90 % 0.00 in /  0 mm 0 W/m2
18:38 40.8 °F /  4.9 °C 38.1 °F /  3.4 °C 30.37 in /  1028.3 hPa Calm   2.0 mph /  3.2 km/h 90 % 0.00 in /  0 mm 0 W/m2
18:43 40.5 °F /  4.7 °C 37.8 °F /  3.2 °C 30.37 in /  1028.3 hPa Calm   1.0 mph /  1.6 km/h 90 % 0.00 in /  0 mm 0 W/m2
18:48 40.3 °F /  4.6 °C 37.6 °F /  3.1 °C 30.37 in /  1028.3 hPa WNW 1.0 mph /  1.6 km/h 4.0 mph /  6.4 km/h 90 % 0.00 in /  0 mm 0 W/m2
18:53 40.1 °F /  4.5 °C 37.7 °F /  3.2 °C 30.37 in /  1028.3 hPa WNW 2.0 mph /  3.2 km/h 3.0 mph /  4.8 km/h 91 % 0.00 in /  0 mm 0 W/m2
18:58 39.9 °F /  4.4 °C 37.5 °F /  3.1 °C 30.37 in /  1028.3 hPa WNW 2.0 mph /  3.2 km/h 4.0 mph /  6.4 km/h 91 % 0.00 in /  0 mm 0 W/m2
19:03 39.9 °F /  4.4 °C 37.5 °F /  3.1 °C 30.36 in /  1028 hPa Calm     91 % 0.00 in /  0 mm 0 W/m2
19:08 39.7 °F /  4.3 °C 37.3 °F /  2.9 °C 30.36 in /  1028 hPa Calm     91 % 0.00 in /  0 mm 0 W/m2
19:13 39.6 °F /  4.2 °C 37.2 °F /  2.9 °C 30.37 in /  1028.3 hPa Calm     91 % 0.00 in /  0 mm 0 W/m2
19:18 39.4 °F /  4.1 °C 37.0 °F /  2.8 °C 30.37 in /  1028.3 hPa Calm   2.0 mph /  3.2 km/h 91 % 0.00 in /  0 mm 0 W/m2
19:23 39.0 °F /  3.9 °C 36.6 °F /  2.6 °C 30.37 in /  1028.3 hPa WNW 5.0 mph /  8 km/h 7.0 mph /  11.3 km/h 91 % 0.00 in /  0 mm 0 W/m2
19:28 39.0 °F /  3.9 °C 36.9 °F /  2.7 °C 30.37 in /  1028.3 hPa NW 4.0 mph /  6.4 km/h 6.0 mph /  9.7 km/h 92 % 0.00 in /  0 mm 0 W/m2
19:33 39.0 °F /  3.9 °C 36.9 °F /  2.7 °C 30.37 in /  1028.3 hPa NW 4.0 mph /  6.4 km/h 6.0 mph /  9.7 km/h 92 % 0.00 in /  0 mm 0 W/m2
19:38 39.0 °F /  3.9 °C 36.9 °F /  2.7 °C 30.37 in /  1028.3 hPa NW 3.0 mph /  4.8 km/h 5.0 mph /  8 km/h 92 % 0.00 in /  0 mm 0 W/m2
19:43 39.0 °F /  3.9 °C 37.2 °F /  2.9 °C 30.37 in /  1028.3 hPa WNW 1.0 mph /  1.6 km/h 4.0 mph /  6.4 km/h 93 % 0.00 in /  0 mm 0 W/m2
19:48 39.0 °F /  3.9 °C 36.9 °F /  2.7 °C 30.37 in /  1028.3 hPa WNW 2.0 mph /  3.2 km/h 4.0 mph /  6.4 km/h 92 % 0.00 in /  0 mm 0 W/m2
19:53 38.8 °F /  3.8 °C 36.7 °F /  2.6 °C 30.37 in /  1028.3 hPa WNW 3.0 mph /  4.8 km/h 5.0 mph /  8 km/h 92 % 0.00 in /  0 mm 0 W/m2
19:58 38.7 °F /  3.7 °C 36.5 °F /  2.5 °C 30.37 in /  1028.3 hPa WNW 3.0 mph /  4.8 km/h 4.0 mph /  6.4 km/h 92 % 0.00 in /  0 mm 0 W/m2
20:03 38.7 °F /  3.7 °C 36.5 °F /  2.5 °C 30.37 in /  1028.3 hPa West 4.0 mph /  6.4 km/h 5.0 mph /  8 km/h 92 % 0.00 in /  0 mm 0 W/m2
20:08 38.5 °F /  3.6 °C 36.4 °F /  2.4 °C 30.38 in /  1028.7 hPa West 3.0 mph /  4.8 km/h 5.0 mph /  8 km/h 92 % 0.00 in /  0 mm 0 W/m2
20:09 38.5 °F /  3.6 °C 36.4 °F /  2.4 °C 30.37 in /  1028.3 hPa West 3.0 mph /  4.8 km/h 5.0 mph /  8 km/h 92 % 0.00 in /  0 mm 0 W/m2
20:14 38.5 °F /  3.6 °C 36.6 °F /  2.6 °C 30.38 in /  1028.7 hPa West 2.0 mph /  3.2 km/h 5.0 mph /  8 km/h 93 % 0.00 in /  0 mm 0 W/m2
20:19 38.5 °F /  3.6 °C 36.6 °F /  2.6 °C 30.38 in /  1028.7 hPa West 4.0 mph /  6.4 km/h 5.0 mph /  8 km/h 93 % 0.00 in /  0 mm 0 W/m2
20:24 38.5 °F /  3.6 °C 36.6 °F /  2.6 °C 30.38 in /  1028.7 hPa WNW 5.0 mph /  8 km/h 6.0 mph /  9.7 km/h 93 % 0.00 in /  0 mm 0 W/m2
20:29 38.5 °F /  3.6 °C 36.6 °F /  2.6 °C 30.38 in /  1028.7 hPa WNW 4.0 mph /  6.4 km/h 5.0 mph /  8 km/h 93 % 0.00 in /  0 mm 0 W/m2
20:34 38.5 °F /  3.6 °C 36.6 °F /  2.6 °C 30.38 in /  1028.7 hPa WNW 2.0 mph /  3.2 km/h 4.0 mph /  6.4 km/h 93 % 0.00 in /  0 mm 0 W/m2
20:39 38.5 °F /  3.6 °C 36.6 °F /  2.6 °C 30.38 in /  1028.7 hPa WNW 4.0 mph /  6.4 km/h 5.0 mph /  8 km/h 93 % 0.00 in /  0 mm 0 W/m2
20:44 38.5 °F /  3.6 °C 36.6 °F /  2.6 °C 30.38 in /  1028.7 hPa WNW 4.0 mph /  6.4 km/h 6.0 mph /  9.7 km/h 93 % 0.00 in /  0 mm 0 W/m2
20:49 38.7 °F /  3.7 °C 37.1 °F /  2.8 °C 30.38 in /  1028.7 hPa WNW 4.0 mph /  6.4 km/h 5.0 mph /  8 km/h 94 % 0.00 in /  0 mm 0 W/m2
20:54 38.7 °F /  3.7 °C 37.1 °F /  2.8 °C 30.38 in /  1028.7 hPa WNW 6.0 mph /  9.7 km/h 8.0 mph /  12.9 km/h 94 % 0.00 in /  0 mm 0 W/m2
20:59 39.0 °F /  3.9 °C 37.4 °F /  3 °C 30.38 in /  1028.7 hPa WNW 5.0 mph /  8 km/h 8.0 mph /  12.9 km/h 94 % 0.00 in /  0 mm 0 W/m2
21:04 39.4 °F /  4.1 °C 37.8 °F /  3.2 °C 30.39 in /  1029 hPa WNW 5.0 mph /  8 km/h 7.0 mph /  11.3 km/h 94 % 0.00 in /  0 mm 0 W/m2
21:09 39.6 °F /  4.2 °C 38.0 °F /  3.3 °C 30.39 in /  1029 hPa WNW 5.0 mph /  8 km/h 8.0 mph /  12.9 km/h 94 % 0.00 in /  0 mm 0 W/m2
21:14 39.7 °F /  4.3 °C 38.2 °F /  3.4 °C 30.39 in /  1029 hPa WNW 4.0 mph /  6.4 km/h 6.0 mph /  9.7 km/h 94 % 0.00 in /  0 mm 0 W/m2
21:19 39.7 °F /  4.3 °C 37.9 °F /  3.3 °C 30.39 in /  1029 hPa WNW 5.0 mph /  8 km/h 8.0 mph /  12.9 km/h 93 % 0.00 in /  0 mm 0 W/m2
21:24 39.7 °F /  4.3 °C 37.9 °F /  3.3 °C 30.39 in /  1029 hPa NW 6.0 mph /  9.7 km/h 11.0 mph /  17.7 km/h 93 % 0.00 in /  0 mm 0 W/m2
21:29 40.1 °F /  4.5 °C 38.2 °F /  3.4 °C 30.39 in /  1029 hPa WNW 6.0 mph /  9.7 km/h 9.0 mph /  14.5 km/h 93 % 0.00 in /  0 mm 0 W/m2
21:34 40.3 °F /  4.6 °C 38.4 °F /  3.6 °C 30.39 in /  1029 hPa WNW 8.0 mph /  12.9 km/h 11.0 mph /  17.7 km/h 93 % 0.00 in /  0 mm 0 W/m2
21:39 40.5 °F /  4.7 °C 38.6 °F /  3.7 °C 30.39 in /  1029 hPa WNW 7.0 mph /  11.3 km/h 10.0 mph /  16.1 km/h 93 % 0.00 in /  0 mm 0 W/m2
21:44 40.6 °F /  4.8 °C 38.8 °F /  3.8 °C 30.39 in /  1029 hPa WNW 7.0 mph /  11.3 km/h 11.0 mph /  17.7 km/h 93 % 0.00 in /  0 mm 0 W/m2
21:49 40.8 °F /  4.9 °C 38.7 °F /  3.7 °C 30.39 in /  1029 hPa WNW 7.0 mph /  11.3 km/h 11.0 mph /  17.7 km/h 92 % 0.00 in /  0 mm 0 W/m2
21:54 41.0 °F /  5 °C 38.9 °F /  3.8 °C 30.39 in /  1029 hPa WNW 7.0 mph /  11.3 km/h 12.0 mph /  19.3 km/h 92 % 0.00 in /  0 mm 0 W/m2
21:59 41.2 °F /  5.1 °C 38.8 °F /  3.8 °C 30.39 in /  1029 hPa WNW 6.0 mph /  9.7 km/h 11.0 mph /  17.7 km/h 91 % 0.00 in /  0 mm 0 W/m2
22:04 41.2 °F /  5.1 °C 38.8 °F /  3.8 °C 30.39 in /  1029 hPa WNW 7.0 mph /  11.3 km/h 12.0 mph /  19.3 km/h 91 % 0.00 in /  0 mm 0 W/m2
22:09 41.2 °F /  5.1 °C 38.8 °F /  3.8 °C 30.39 in /  1029 hPa WNW 8.0 mph /  12.9 km/h 13.0 mph /  20.9 km/h 91 % 0.00 in /  0 mm 0 W/m2
22:14 41.2 °F /  5.1 °C 38.5 °F /  3.6 °C 30.39 in /  1029 hPa WNW 8.0 mph /  12.9 km/h 12.0 mph /  19.3 km/h 90 % 0.00 in /  0 mm 0 W/m2
22:19 41.4 °F /  5.2 °C 38.6 °F /  3.7 °C 30.39 in /  1029 hPa WNW 8.0 mph /  12.9 km/h 11.0 mph /  17.7 km/h 90 % 0.00 in /  0 mm 0 W/m2
22:24 41.2 °F /  5.1 °C 38.5 °F /  3.6 °C 30.39 in /  1029 hPa WNW 8.0 mph /  12.9 km/h 11.0 mph /  17.7 km/h 90 % 0.00 in /  0 mm 0 W/m2
22:29 41.2 °F /  5.1 °C 38.5 °F /  3.6 °C 30.39 in /  1029 hPa WNW 8.0 mph /  12.9 km/h 13.0 mph /  20.9 km/h 90 % 0.00 in /  0 mm 0 W/m2
22:34 41.2 °F /  5.1 °C 38.5 °F /  3.6 °C 30.39 in /  1029 hPa WNW 7.0 mph /  11.3 km/h 10.0 mph /  16.1 km/h 90 % 0.00 in /  0 mm 0 W/m2
22:39 41.0 °F /  5 °C 38.3 °F /  3.5 °C 30.39 in /  1029 hPa WNW 6.0 mph /  9.7 km/h 9.0 mph /  14.5 km/h 90 % 0.00 in /  0 mm 0 W/m2
22:44 40.8 °F /  4.9 °C 38.1 °F /  3.4 °C 30.39 in /  1029 hPa WNW 6.0 mph /  9.7 km/h 9.0 mph /  14.5 km/h 90 % 0.00 in /  0 mm 0 W/m2
22:49 40.8 °F /  4.9 °C 38.1 °F /  3.4 °C 30.40 in /  1029.3 hPa WNW 5.0 mph /  8 km/h 8.0 mph /  12.9 km/h 90 % 0.00 in /  0 mm 0 W/m2
22:54 40.6 °F /  4.8 °C 37.7 °F /  3.2 °C 30.40 in /  1029.3 hPa WNW 5.0 mph /  8 km/h 8.0 mph /  12.9 km/h 89 % 0.00 in /  0 mm 0 W/m2
22:59 40.5 °F /  4.7 °C 37.8 °F /  3.2 °C 30.40 in /  1029.3 hPa WNW 6.0 mph /  9.7 km/h 8.0 mph /  12.9 km/h 90 % 0.00 in /  0 mm 0 W/m2
23:04 40.3 °F /  4.6 °C 37.6 °F /  3.1 °C 30.40 in /  1029.3 hPa NW 5.0 mph /  8 km/h 7.0 mph /  11.3 km/h 90 % 0.00 in /  0 mm 0 W/m2
23:09 40.3 °F /  4.6 °C 37.6 °F /  3.1 °C 30.40 in /  1029.3 hPa NW 6.0 mph /  9.7 km/h 10.0 mph /  16.1 km/h 90 % 0.00 in /  0 mm 0 W/m2
23:14 40.3 °F /  4.6 °C 37.9 °F /  3.3 °C 30.40 in /  1029.3 hPa WNW 7.0 mph /  11.3 km/h 11.0 mph /  17.7 km/h 91 % 0.00 in /  0 mm 0 W/m2
23:19 40.3 °F /  4.6 °C 37.9 °F /  3.3 °C 30.40 in /  1029.3 hPa WNW 6.0 mph /  9.7 km/h 9.0 mph /  14.5 km/h 91 % 0.00 in /  0 mm 0 W/m2
23:20 40.3 °F /  4.6 °C 37.9 °F /  3.3 °C 30.40 in /  1029.3 hPa WNW 6.0 mph /  9.7 km/h 9.0 mph /  14.5 km/h 91 % 0.00 in /  0 mm 0 W/m2
23:25 40.3 °F /  4.6 °C 37.9 °F /  3.3 °C 30.40 in /  1029.3 hPa WNW 5.0 mph /  8 km/h 8.0 mph /  12.9 km/h 91 % 0.00 in /  0 mm 0 W/m2
23:30 40.3 °F /  4.6 °C 37.9 °F /  3.3 °C 30.40 in /  1029.3 hPa WNW 5.0 mph /  8 km/h 7.0 mph /  11.3 km/h 91 % 0.00 in /  0 mm 0 W/m2
23:35 40.1 °F /  4.5 °C 37.4 °F /  3 °C 30.40 in /  1029.3 hPa WNW 6.0 mph /  9.7 km/h 8.0 mph /  12.9 km/h 90 % 0.00 in /  0 mm 0 W/m2
23:40 39.9 °F /  4.4 °C 37.5 °F /  3.1 °C 30.41 in /  1029.7 hPa WNW 6.0 mph /  9.7 km/h 10.0 mph /  16.1 km/h 91 % 0.00 in /  0 mm 0 W/m2
23:45 39.9 °F /  4.4 °C 37.5 °F /  3.1 °C 30.41 in /  1029.7 hPa NW 6.0 mph /  9.7 km/h 8.0 mph /  12.9 km/h 91 % 0.00 in /  0 mm 0 W/m2
23:50 39.7 °F /  4.3 °C 37.3 °F /  2.9 °C 30.41 in /  1029.7 hPa NW 4.0 mph /  6.4 km/h 7.0 mph /  11.3 km/h 91 % 0.00 in /  0 mm 0 W/m2
23:55 39.7 °F /  4.3 °C 37.3 °F /  2.9 °C 30.41 in /  1029.7 hPa WNW 5.0 mph /  8 km/h 7.0 mph /  11.3 km/h 91 % 0.00 in /  0 mm 0 W/m2
Delerius-Weather
Compliments of Weather Underground - 2.25 mb

Data updates at regular intervals.